sensor_id;sensor_type;location;lat;lon;timestamp;pressure;altitude;pressure_sealevel;temperature;humidity
49779;BME280;36217;60.232;24.776;2022-11-15T00:01:07;101079.26;;;6.98;100.00
49779;BME280;36217;60.232;24.776;2022-11-15T00:03:34;101079.70;;;6.88;100.00
49779;BME280;36217;60.232;24.776;2022-11-15T00:06:02;101077.12;;;6.79;100.00
49779;BME280;36217;60.232;24.776;2022-11-15T00:08:29;101074.27;;;7.02;100.00
49779;BME280;36217;60.232;24.776;2022-11-15T00:10:57;101071.60;;;6.86;100.00
49779;BME280;36217;60.232;24.776;2022-11-15T00:13:25;101070.21;;;6.68;100.00
49779;BME280;36217;60.232;24.776;2022-11-15T00:15:52;101067.60;;;6.84;100.00
49779;BME280;36217;60.232;24.776;2022-11-15T00:18:19;101070.37;;;6.88;100.00
49779;BME280;36217;60.232;24.776;2022-11-15T00:20:46;101067.09;;;6.88;100.00
49779;BME280;36217;60.232;24.776;2022-11-15T00:23:13;101066.89;;;6.72;100.00
49779;BME280;36217;60.232;24.776;2022-11-15T00:25:40;101057.11;;;6.77;100.00
49779;BME280;36217;60.232;24.776;2022-11-15T00:28:07;101041.99;;;6.71;100.00
49779;BME280;36217;60.232;24.776;2022-11-15T00:30:34;101043.13;;;6.73;100.00
49779;BME280;36217;60.232;24.776;2022-11-15T00:33:02;101035.68;;;7.02;100.00
49779;BME280;36217;60.232;24.776;2022-11-15T00:35:31;101035.73;;;6.79;100.00
49779;BME280;36217;60.232;24.776;2022-11-15T00:37:59;101030.58;;;7.00;100.00
49779;BME280;36217;60.232;24.776;2022-11-15T00:40:27;101031.39;;;6.62;100.00
49779;BME280;36217;60.232;24.776;2022-11-15T00:42:53;101032.72;;;6.70;100.00
49779;BME280;36217;60.232;24.776;2022-11-15T00:45:21;101033.12;;;6.97;100.00
49779;BME280;36217;60.232;24.776;2022-11-15T00:47:48;101028.45;;;6.68;100.00
49779;BME280;36217;60.232;24.776;2022-11-15T00:50:15;101017.37;;;6.72;100.00
49779;BME280;36217;60.232;24.776;2022-11-15T00:52:43;101008.04;;;6.70;100.00
49779;BME280;36217;60.232;24.776;2022-11-15T00:55:13;100999.90;;;6.79;100.00
49779;BME280;36217;60.232;24.776;2022-11-15T00:57:40;101003.15;;;6.72;100.00
49779;BME280;36217;60.232;24.776;2022-11-15T01:00:08;101002.14;;;6.87;100.00
49779;BME280;36217;60.232;24.776;2022-11-15T01:02:36;100997.97;;;6.81;100.00
49779;BME280;36217;60.232;24.776;2022-11-15T01:05:04;100996.44;;;7.02;100.00
49779;BME280;36217;60.232;24.776;2022-11-15T01:07:32;100990.94;;;6.66;100.00
49779;BME280;36217;60.232;24.776;2022-11-15T01:09:59;100987.07;;;6.72;100.00
49779;BME280;36217;60.232;24.776;2022-11-15T01:12:26;100978.24;;;6.56;100.00
49779;BME280;36217;60.232;24.776;2022-11-15T01:14:53;100973.45;;;6.70;100.00
49779;BME280;36217;60.232;24.776;2022-11-15T01:17:20;100970.51;;;6.63;100.00
49779;BME280;36217;60.232;24.776;2022-11-15T01:19:47;100969.57;;;6.82;100.00
49779;BME280;36217;60.232;24.776;2022-11-15T01:22:14;100962.92;;;6.75;100.00
49779;BME280;36217;60.232;24.776;2022-11-15T01:24:41;100964.44;;;6.79;100.00
49779;BME280;36217;60.232;24.776;2022-11-15T01:27:08;100960.21;;;6.49;100.00
49779;BME280;36217;60.232;24.776;2022-11-15T01:29:35;100964.33;;;6.55;100.00
49779;BME280;36217;60.232;24.776;2022-11-15T01:32:03;100961.86;;;6.57;100.00
49779;BME280;36217;60.232;24.776;2022-11-15T01:34:29;100959.33;;;6.62;100.00
49779;BME280;36217;60.232;24.776;2022-11-15T01:36:56;100955.81;;;6.68;100.00
49779;BME280;36217;60.232;24.776;2022-11-15T01:39:24;100954.46;;;7.00;100.00
49779;BME280;36217;60.232;24.776;2022-11-15T01:41:51;100951.33;;;6.63;100.00
49779;BME280;36217;60.232;24.776;2022-11-15T01:44:51;100945.48;;;6.68;100.00
49779;BME280;36217;60.232;24.776;2022-11-15T01:47:21;100940.43;;;6.59;100.00
49779;BME280;36217;60.232;24.776;2022-11-15T01:49:54;100935.38;;;6.89;100.00
49779;BME280;36217;60.232;24.776;2022-11-15T01:52:24;100931.26;;;6.56;100.00
49779;BME280;36217;60.232;24.776;2022-11-15T01:54:55;100926.96;;;6.59;100.00
49779;BME280;36217;60.232;24.776;2022-11-15T01:57:22;100926.95;;;6.83;100.00
49779;BME280;36217;60.232;24.776;2022-11-15T01:59:49;100923.98;;;6.42;100.00
49779;BME280;36217;60.232;24.776;2022-11-15T02:02:16;100920.88;;;6.47;100.00
49779;BME280;36217;60.232;24.776;2022-11-15T02:04:45;100925.19;;;6.60;100.00
49779;BME280;36217;60.232;24.776;2022-11-15T02:07:15;100923.19;;;6.72;100.00
49779;BME280;36217;60.232;24.776;2022-11-15T02:09:44;100913.31;;;6.40;100.00
49779;BME280;36217;60.232;24.776;2022-11-15T02:12:14;100902.14;;;6.50;100.00
49779;BME280;36217;60.232;24.776;2022-11-15T02:14:43;100899.98;;;6.47;100.00
49779;BME280;36217;60.232;24.776;2022-11-15T02:17:25;100898.78;;;6.71;100.00
49779;BME280;36217;60.232;24.776;2022-11-15T02:21:11;100897.76;;;6.84;100.00
49779;BME280;36217;60.232;24.776;2022-11-15T02:24:56;100891.02;;;6.57;100.00
49779;BME280;36217;60.232;24.776;2022-11-15T02:28:41;100888.03;;;6.50;100.00
49779;BME280;36217;60.232;24.776;2022-11-15T02:31:14;100887.90;;;6.72;100.00
49779;BME280;36217;60.232;24.776;2022-11-15T02:33:53;100884.90;;;6.48;100.00
49779;BME280;36217;60.232;24.776;2022-11-15T02:36:34;100888.15;;;6.52;100.00
49779;BME280;36217;60.232;24.776;2022-11-15T02:39:08;100884.79;;;6.47;100.00
49779;BME280;36217;60.232;24.776;2022-11-15T02:41:42;100874.73;;;6.37;100.00
49779;BME280;36217;60.232;24.776;2022-11-15T02:44:18;100873.73;;;6.43;100.00
49779;BME280;36217;60.232;24.776;2022-11-15T02:46:49;100868.28;;;6.40;100.00
49779;BME280;36217;60.232;24.776;2022-11-15T02:49:17;100868.24;;;6.57;100.00
49779;BME280;36217;60.232;24.776;2022-11-15T02:51:46;100866.57;;;6.45;100.00
49779;BME280;36217;60.232;24.776;2022-11-15T02:54:17;100863.71;;;6.29;100.00
49779;BME280;36217;60.232;24.776;2022-11-15T02:56:47;100864.87;;;6.22;100.00
49779;BME280;36217;60.232;24.776;2022-11-15T03:00:05;100860.46;;;6.93;100.00
49779;BME280;36217;60.232;24.776;2022-11-15T03:02:42;100859.38;;;6.50;100.00
49779;BME280;36217;60.232;24.776;2022-11-15T03:05:19;100854.44;;;6.77;100.00
49779;BME280;36217;60.232;24.776;2022-11-15T03:07:54;100847.68;;;6.33;100.00
49779;BME280;36217;60.232;24.776;2022-11-15T03:10:28;100846.46;;;6.24;100.00
49779;BME280;36217;60.232;24.776;2022-11-15T03:13:04;100842.74;;;6.64;100.00
49779;BME280;36217;60.232;24.776;2022-11-15T03:15:38;100842.98;;;6.05;100.00
49779;BME280;36217;60.232;24.776;2022-11-15T03:18:12;100837.86;;;6.29;100.00
49779;BME280;36217;60.232;24.776;2022-11-15T03:20:42;100838.41;;;6.19;100.00
49779;BME280;36217;60.232;24.776;2022-11-15T03:23:10;100832.58;;;5.89;100.00
49779;BME280;36217;60.232;24.776;2022-11-15T03:25:41;100830.33;;;5.93;100.00
49779;BME280;36217;60.232;24.776;2022-11-15T03:28:14;100827.30;;;6.01;100.00
49779;BME280;36217;60.232;24.776;2022-11-15T03:30:44;100829.62;;;6.16;100.00
49779;BME280;36217;60.232;24.776;2022-11-15T03:33:13;100823.07;;;6.56;100.00
49779;BME280;36217;60.232;24.776;2022-11-15T03:35:43;100819.22;;;6.01;100.00
49779;BME280;36217;60.232;24.776;2022-11-15T03:38:15;100818.83;;;6.35;100.00
49779;BME280;36217;60.232;24.776;2022-11-15T03:40:48;100817.99;;;6.30;100.00
49779;BME280;36217;60.232;24.776;2022-11-15T03:43:24;100813.31;;;6.16;100.00
49779;BME280;36217;60.232;24.776;2022-11-15T03:45:56;100811.95;;;6.27;100.00
49779;BME280;36217;60.232;24.776;2022-11-15T03:48:28;100813.89;;;6.55;100.00
49779;BME280;36217;60.232;24.776;2022-11-15T03:50:57;100808.35;;;6.63;100.00
49779;BME280;36217;60.232;24.776;2022-11-15T03:53:24;100811.93;;;6.56;100.00
49779;BME280;36217;60.232;24.776;2022-11-15T03:55:51;100808.97;;;5.82;100.00
49779;BME280;36217;60.232;24.776;2022-11-15T03:58:18;100808.66;;;5.86;100.00
49779;BME280;36217;60.232;24.776;2022-11-15T04:00:45;100806.22;;;6.30;100.00
49779;BME280;36217;60.232;24.776;2022-11-15T04:03:12;100812.97;;;6.48;100.00
49779;BME280;36217;60.232;24.776;2022-11-15T04:05:39;100815.63;;;6.05;100.00
49779;BME280;36217;60.232;24.776;2022-11-15T04:08:06;100816.76;;;6.16;100.00
49779;BME280;36217;60.232;24.776;2022-11-15T04:10:33;100818.31;;;6.04;100.00
49779;BME280;36217;60.232;24.776;2022-11-15T04:13:02;100815.23;;;4.96;100.00
49779;BME280;36217;60.232;24.776;2022-11-15T04:15:29;100828.64;;;5.93;100.00
49779;BME280;36217;60.232;24.776;2022-11-15T04:17:57;100830.99;;;4.97;100.00
49779;BME280;36217;60.232;24.776;2022-11-15T04:20:26;100828.18;;;5.51;100.00
49779;BME280;36217;60.232;24.776;2022-11-15T04:22:54;100832.66;;;5.40;100.00
49779;BME280;36217;60.232;24.776;2022-11-15T04:25:21;100822.70;;;5.05;100.00
49779;BME280;36217;60.232;24.776;2022-11-15T04:27:48;100824.06;;;4.98;100.00
49779;BME280;36217;60.232;24.776;2022-11-15T04:30:16;100824.33;;;5.54;100.00
49779;BME280;36217;60.232;24.776;2022-11-15T04:32:43;100826.68;;;5.52;100.00
49779;BME280;36217;60.232;24.776;2022-11-15T04:35:10;100830.59;;;5.50;100.00
49779;BME280;36217;60.232;24.776;2022-11-15T04:37:37;100831.69;;;5.45;100.00
49779;BME280;36217;60.232;24.776;2022-11-15T04:40:05;100838.17;;;5.48;100.00
49779;BME280;36217;60.232;24.776;2022-11-15T04:42:32;100832.34;;;5.46;100.00
49779;BME280;36217;60.232;24.776;2022-11-15T04:44:59;100832.00;;;5.27;100.00
49779;BME280;36217;60.232;24.776;2022-11-15T04:47:26;100829.06;;;4.98;100.00
49779;BME280;36217;60.232;24.776;2022-11-15T04:49:53;100835.61;;;5.66;100.00
49779;BME280;36217;60.232;24.776;2022-11-15T04:52:20;100835.71;;;5.26;100.00
49779;BME280;36217;60.232;24.776;2022-11-15T04:54:47;100843.61;;;5.25;100.00
49779;BME280;36217;60.232;24.776;2022-11-15T04:57:14;100841.61;;;5.24;100.00
49779;BME280;36217;60.232;24.776;2022-11-15T04:59:41;100840.12;;;5.27;100.00
49779;BME280;36217;60.232;24.776;2022-11-15T05:02:08;100844.00;;;5.28;100.00
49779;BME280;36217;60.232;24.776;2022-11-15T05:04:35;100843.45;;;5.18;100.00
49779;BME280;36217;60.232;24.776;2022-11-15T05:07:03;100845.71;;;5.19;100.00
49779;BME280;36217;60.232;24.776;2022-11-15T05:09:29;100852.66;;;5.58;100.00
49779;BME280;36217;60.232;24.776;2022-11-15T05:11:57;100869.22;;;4.93;100.00
49779;BME280;36217;60.232;24.776;2022-11-15T05:14:24;100857.11;;;5.06;100.00
49779;BME280;36217;60.232;24.776;2022-11-15T05:16:51;100863.85;;;5.38;100.00
49779;BME280;36217;60.232;24.776;2022-11-15T05:19:18;100852.68;;;5.38;100.00
49779;BME280;36217;60.232;24.776;2022-11-15T05:21:45;100855.49;;;4.97;100.00
49779;BME280;36217;60.232;24.776;2022-11-15T05:24:12;100848.93;;;5.10;100.00
49779;BME280;36217;60.232;24.776;2022-11-15T05:26:39;100850.14;;;5.29;100.00
49779;BME280;36217;60.232;24.776;2022-11-15T05:29:08;100852.35;;;5.31;100.00
49779;BME280;36217;60.232;24.776;2022-11-15T05:31:39;100851.46;;;4.90;100.00
49779;BME280;36217;60.232;24.776;2022-11-15T05:34:06;100862.41;;;5.17;100.00
49779;BME280;36217;60.232;24.776;2022-11-15T05:36:36;100863.91;;;5.08;100.00
49779;BME280;36217;60.232;24.776;2022-11-15T05:39:04;100863.26;;;5.01;100.00
49779;BME280;36217;60.232;24.776;2022-11-15T05:41:33;100875.41;;;5.03;100.00
49779;BME280;36217;60.232;24.776;2022-11-15T05:44:03;100867.66;;;4.85;100.00
49779;BME280;36217;60.232;24.776;2022-11-15T05:46:33;100878.54;;;4.82;100.00
49779;BME280;36217;60.232;24.776;2022-11-15T05:49:01;100872.96;;;5.41;100.00
49779;BME280;36217;60.232;24.776;2022-11-15T05:51:29;100880.95;;;4.75;100.00
49779;BME280;36217;60.232;24.776;2022-11-15T05:53:56;100881.20;;;5.08;100.00
49779;BME280;36217;60.232;24.776;2022-11-15T05:56:25;100889.97;;;4.49;100.00
49779;BME280;36217;60.232;24.776;2022-11-15T05:58:53;100887.73;;;4.61;100.00
49779;BME280;36217;60.232;24.776;2022-11-15T06:01:21;100889.05;;;4.67;100.00
49779;BME280;36217;60.232;24.776;2022-11-15T06:03:48;100892.39;;;4.26;100.00
49779;BME280;36217;60.232;24.776;2022-11-15T06:06:15;100894.42;;;5.14;100.00
49779;BME280;36217;60.232;24.776;2022-11-15T06:08:42;100893.98;;;4.84;100.00
49779;BME280;36217;60.232;24.776;2022-11-15T06:11:10;100903.67;;;4.21;100.00
49779;BME280;36217;60.232;24.776;2022-11-15T06:13:37;100917.78;;;4.64;100.00
49779;BME280;36217;60.232;24.776;2022-11-15T06:16:04;100900.44;;;4.83;100.00
49779;BME280;36217;60.232;24.776;2022-11-15T06:18:32;100906.12;;;4.81;100.00
49779;BME280;36217;60.232;24.776;2022-11-15T06:21:00;100907.19;;;5.18;100.00
49779;BME280;36217;60.232;24.776;2022-11-15T06:23:28;100910.40;;;4.69;100.00
49779;BME280;36217;60.232;24.776;2022-11-15T06:25:57;100904.09;;;4.85;100.00
49779;BME280;36217;60.232;24.776;2022-11-15T06:28:24;100910.21;;;4.60;100.00
49779;BME280;36217;60.232;24.776;2022-11-15T06:30:51;100910.97;;;4.43;100.00
49779;BME280;36217;60.232;24.776;2022-11-15T06:33:19;100920.09;;;4.30;100.00
49779;BME280;36217;60.232;24.776;2022-11-15T06:35:45;100929.40;;;4.44;100.00
49779;BME280;36217;60.232;24.776;2022-11-15T06:38:12;100923.35;;;4.95;100.00
49779;BME280;36217;60.232;24.776;2022-11-15T06:40:40;100944.32;;;4.92;100.00
49779;BME280;36217;60.232;24.776;2022-11-15T06:43:07;100933.82;;;4.85;100.00
49779;BME280;36217;60.232;24.776;2022-11-15T06:45:34;100947.52;;;4.35;100.00
49779;BME280;36217;60.232;24.776;2022-11-15T06:48:01;100941.39;;;4.29;100.00
49779;BME280;36217;60.232;24.776;2022-11-15T06:50:28;100950.93;;;4.70;100.00
49779;BME280;36217;60.232;24.776;2022-11-15T06:52:55;100951.96;;;4.65;100.00
49779;BME280;36217;60.232;24.776;2022-11-15T06:55:26;100963.81;;;4.43;100.00
49779;BME280;36217;60.232;24.776;2022-11-15T06:57:53;100962.25;;;4.32;100.00
49779;BME280;36217;60.232;24.776;2022-11-15T07:00:21;100979.07;;;4.28;100.00
49779;BME280;36217;60.232;24.776;2022-11-15T07:02:49;100998.26;;;4.62;100.00
49779;BME280;36217;60.232;24.776;2022-11-15T07:05:16;100973.84;;;4.48;100.00
49779;BME280;36217;60.232;24.776;2022-11-15T07:07:43;100994.06;;;4.34;100.00
49779;BME280;36217;60.232;24.776;2022-11-15T07:10:10;101013.57;;;3.80;100.00
49779;BME280;36217;60.232;24.776;2022-11-15T07:12:37;101012.06;;;4.87;100.00
49779;BME280;36217;60.232;24.776;2022-11-15T07:15:05;101010.58;;;4.27;100.00
49779;BME280;36217;60.232;24.776;2022-11-15T07:17:32;101016.37;;;3.71;100.00
49779;BME280;36217;60.232;24.776;2022-11-15T07:19:59;101023.70;;;3.96;100.00
49779;BME280;36217;60.232;24.776;2022-11-15T07:22:26;101018.53;;;3.86;100.00
49779;BME280;36217;60.232;24.776;2022-11-15T07:24:53;101028.53;;;4.19;100.00
49779;BME280;36217;60.232;24.776;2022-11-15T07:27:20;101046.16;;;4.35;100.00
49779;BME280;36217;60.232;24.776;2022-11-15T07:29:47;101027.71;;;4.37;100.00
49779;BME280;36217;60.232;24.776;2022-11-15T07:32:14;101037.41;;;4.45;100.00
49779;BME280;36217;60.232;24.776;2022-11-15T07:34:41;101028.80;;;4.16;100.00
49779;BME280;36217;60.232;24.776;2022-11-15T07:37:08;101043.75;;;4.82;100.00
49779;BME280;36217;60.232;24.776;2022-11-15T07:39:36;101042.38;;;4.70;100.00
49779;BME280;36217;60.232;24.776;2022-11-15T07:42:03;101073.38;;;4.16;100.00
49779;BME280;36217;60.232;24.776;2022-11-15T07:44:30;101059.77;;;4.37;100.00
49779;BME280;36217;60.232;24.776;2022-11-15T07:46:57;101084.79;;;4.02;100.00
49779;BME280;36217;60.232;24.776;2022-11-15T07:49:24;101069.20;;;3.68;100.00
49779;BME280;36217;60.232;24.776;2022-11-15T07:51:51;101074.16;;;3.82;100.00
49779;BME280;36217;60.232;24.776;2022-11-15T07:54:18;101082.83;;;3.30;100.00
49779;BME280;36217;60.232;24.776;2022-11-15T07:56:45;101094.75;;;3.62;100.00
49779;BME280;36217;60.232;24.776;2022-11-15T07:59:12;101094.11;;;3.42;100.00
49779;BME280;36217;60.232;24.776;2022-11-15T08:01:39;101105.31;;;4.11;100.00
49779;BME280;36217;60.232;24.776;2022-11-15T08:04:06;101110.69;;;4.38;100.00
49779;BME280;36217;60.232;24.776;2022-11-15T08:06:33;101104.29;;;3.64;100.00
49779;BME280;36217;60.232;24.776;2022-11-15T08:09:01;101124.11;;;4.02;100.00
49779;BME280;36217;60.232;24.776;2022-11-15T08:11:28;101127.54;;;3.83;100.00
49779;BME280;36217;60.232;24.776;2022-11-15T08:13:56;101154.33;;;3.91;100.00
49779;BME280;36217;60.232;24.776;2022-11-15T08:16:23;101141.08;;;3.41;100.00
49779;BME280;36217;60.232;24.776;2022-11-15T08:18:50;101157.31;;;3.89;100.00
49779;BME280;36217;60.232;24.776;2022-11-15T08:21:18;101151.33;;;3.45;100.00
49779;BME280;36217;60.232;24.776;2022-11-15T08:23:46;101160.28;;;3.86;100.00
49779;BME280;36217;60.232;24.776;2022-11-15T08:26:13;101155.37;;;3.92;100.00
49779;BME280;36217;60.232;24.776;2022-11-15T08:28:40;101164.04;;;4.17;100.00
49779;BME280;36217;60.232;24.776;2022-11-15T08:31:14;101167.14;;;3.98;100.00
49779;BME280;36217;60.232;24.776;2022-11-15T08:33:41;101171.57;;;4.16;100.00
49779;BME280;36217;60.232;24.776;2022-11-15T08:36:12;101190.04;;;4.35;100.00
49779;BME280;36217;60.232;24.776;2022-11-15T08:38:39;101198.38;;;4.37;100.00
49779;BME280;36217;60.232;24.776;2022-11-15T08:41:09;101196.34;;;4.17;100.00
49779;BME280;36217;60.232;24.776;2022-11-15T08:43:38;101193.86;;;3.78;100.00
49779;BME280;36217;60.232;24.776;2022-11-15T08:46:05;101204.03;;;3.69;100.00
49779;BME280;36217;60.232;24.776;2022-11-15T08:48:32;101213.53;;;4.37;100.00
49779;BME280;36217;60.232;24.776;2022-11-15T08:50:59;101211.79;;;3.57;100.00
49779;BME280;36217;60.232;24.776;2022-11-15T08:53:26;101208.83;;;4.39;100.00
49779;BME280;36217;60.232;24.776;2022-11-15T08:55:53;101217.66;;;3.65;100.00
49779;BME280;36217;60.232;24.776;2022-11-15T08:58:20;101217.26;;;4.23;100.00
49779;BME280;36217;60.232;24.776;2022-11-15T09:00:47;101234.93;;;4.13;100.00
49779;BME280;36217;60.232;24.776;2022-11-15T09:03:14;101222.65;;;4.52;100.00
49779;BME280;36217;60.232;24.776;2022-11-15T09:05:42;101222.00;;;3.91;100.00
49779;BME280;36217;60.232;24.776;2022-11-15T09:08:09;101214.86;;;4.41;100.00
49779;BME280;36217;60.232;24.776;2022-11-15T09:10:36;101231.25;;;4.85;100.00
49779;BME280;36217;60.232;24.776;2022-11-15T09:13:03;101245.64;;;4.79;100.00
49779;BME280;36217;60.232;24.776;2022-11-15T09:15:30;101246.59;;;5.00;100.00
49779;BME280;36217;60.232;24.776;2022-11-15T09:17:58;101241.03;;;4.27;100.00
49779;BME280;36217;60.232;24.776;2022-11-15T09:20:25;101253.42;;;4.64;100.00
49779;BME280;36217;60.232;24.776;2022-11-15T09:22:52;101266.41;;;4.65;100.00
49779;BME280;36217;60.232;24.776;2022-11-15T09:25:19;101254.85;;;4.63;100.00
49779;BME280;36217;60.232;24.776;2022-11-15T09:27:46;101260.79;;;4.27;100.00
49779;BME280;36217;60.232;24.776;2022-11-15T09:30:13;101247.67;;;4.53;100.00
49779;BME280;36217;60.232;24.776;2022-11-15T09:32:40;101264.42;;;4.41;100.00
49779;BME280;36217;60.232;24.776;2022-11-15T09:35:08;101276.14;;;4.54;100.00
49779;BME280;36217;60.232;24.776;2022-11-15T09:37:34;101271.63;;;4.23;100.00
49779;BME280;36217;60.232;24.776;2022-11-15T09:40:02;101278.81;;;4.30;100.00
49779;BME280;36217;60.232;24.776;2022-11-15T09:42:44;101287.73;;;4.15;100.00
49779;BME280;36217;60.232;24.776;2022-11-15T09:45:20;101275.41;;;3.59;100.00
49779;BME280;36217;60.232;24.776;2022-11-15T09:48:02;101306.14;;;4.00;100.00
49779;BME280;36217;60.232;24.776;2022-11-15T09:50:36;101310.00;;;4.12;100.00
49779;BME280;36217;60.232;24.776;2022-11-15T09:53:03;101305.06;;;4.26;100.00
49779;BME280;36217;60.232;24.776;2022-11-15T09:55:38;101314.70;;;3.77;100.00
49779;BME280;36217;60.232;24.776;2022-11-15T09:58:18;101312.25;;;4.15;100.00
49779;BME280;36217;60.232;24.776;2022-11-15T10:00:47;101314.34;;;3.05;100.00
49779;BME280;36217;60.232;24.776;2022-11-15T10:03:16;101320.35;;;3.71;100.00
49779;BME280;36217;60.232;24.776;2022-11-15T10:05:46;101316.22;;;3.21;100.00
49779;BME280;36217;60.232;24.776;2022-11-15T10:08:26;101315.19;;;3.94;100.00
49779;BME280;36217;60.232;24.776;2022-11-15T10:10:57;101321.95;;;3.67;100.00
49779;BME280;36217;60.232;24.776;2022-11-15T10:13:26;101317.46;;;3.55;100.00
49779;BME280;36217;60.232;24.776;2022-11-15T10:16:00;101318.65;;;3.92;100.00
49779;BME280;36217;60.232;24.776;2022-11-15T10:18:35;101320.65;;;3.83;100.00
49779;BME280;36217;60.232;24.776;2022-11-15T10:21:14;101329.21;;;3.74;100.00
49779;BME280;36217;60.232;24.776;2022-11-15T10:23:41;101351.23;;;3.50;100.00
49779;BME280;36217;60.232;24.776;2022-11-15T10:26:12;101339.28;;;3.50;100.00
49779;BME280;36217;60.232;24.776;2022-11-15T10:28:41;101341.63;;;3.53;100.00
49779;BME280;36217;60.232;24.776;2022-11-15T10:31:22;101342.97;;;3.52;100.00
49779;BME280;36217;60.232;24.776;2022-11-15T10:33:49;101339.25;;;4.12;100.00
49779;BME280;36217;60.232;24.776;2022-11-15T10:36:20;101346.42;;;3.91;100.00
49779;BME280;36217;60.232;24.776;2022-11-15T10:39:04;101351.28;;;3.83;100.00
49779;BME280;36217;60.232;24.776;2022-11-15T10:41:39;101355.73;;;3.19;100.00
49779;BME280;36217;60.232;24.776;2022-11-15T10:44:24;101346.08;;;3.40;100.00
49779;BME280;36217;60.232;24.776;2022-11-15T10:47:26;101357.83;;;3.19;100.00
49779;BME280;36217;60.232;24.776;2022-11-15T10:49:56;101361.50;;;3.24;100.00
49779;BME280;36217;60.232;24.776;2022-11-15T10:52:23;101357.12;;;3.15;100.00
49779;BME280;36217;60.232;24.776;2022-11-15T10:54:53;101363.59;;;3.41;100.00
49779;BME280;36217;60.232;24.776;2022-11-15T10:57:23;101362.40;;;3.86;100.00
49779;BME280;36217;60.232;24.776;2022-11-15T10:59:53;101368.12;;;4.05;100.00
49779;BME280;36217;60.232;24.776;2022-11-15T11:02:29;101374.20;;;3.73;100.00
49779;BME280;36217;60.232;24.776;2022-11-15T11:04:57;101370.80;;;3.95;100.00
49779;BME280;36217;60.232;24.776;2022-11-15T11:07:26;101373.01;;;3.53;100.00
49779;BME280;36217;60.232;24.776;2022-11-15T11:10:04;101387.64;;;4.14;100.00
49779;BME280;36217;60.232;24.776;2022-11-15T11:12:33;101393.15;;;3.86;100.00
49779;BME280;36217;60.232;24.776;2022-11-15T11:15:08;101396.85;;;4.39;100.00
49779;BME280;36217;60.232;24.776;2022-11-15T11:17:48;101406.24;;;4.43;100.00
49779;BME280;36217;60.232;24.776;2022-11-15T11:20:23;101399.95;;;3.63;100.00
49779;BME280;36217;60.232;24.776;2022-11-15T11:23:03;101407.43;;;3.87;100.00
49779;BME280;36217;60.232;24.776;2022-11-15T11:25:34;101405.85;;;4.08;100.00
49779;BME280;36217;60.232;24.776;2022-11-15T11:28:17;101403.07;;;4.06;100.00
49779;BME280;36217;60.232;24.776;2022-11-15T11:30:54;101409.87;;;3.46;100.00
49779;BME280;36217;60.232;24.776;2022-11-15T11:33:29;101403.52;;;3.97;100.00
49779;BME280;36217;60.232;24.776;2022-11-15T11:36:06;101404.76;;;3.84;100.00
49779;BME280;36217;60.232;24.776;2022-11-15T11:38:51;101399.33;;;3.77;100.00
49779;BME280;36217;60.232;24.776;2022-11-15T11:41:32;101406.16;;;3.84;100.00
49779;BME280;36217;60.232;24.776;2022-11-15T11:44:15;101406.96;;;3.74;100.00
49779;BME280;36217;60.232;24.776;2022-11-15T11:46:55;101406.02;;;3.82;100.00
49779;BME280;36217;60.232;24.776;2022-11-15T11:49:28;101414.62;;;2.97;100.00
49779;BME280;36217;60.232;24.776;2022-11-15T11:52:02;101411.40;;;3.55;100.00
49779;BME280;36217;60.232;24.776;2022-11-15T11:54:34;101417.62;;;3.57;100.00
49779;BME280;36217;60.232;24.776;2022-11-15T11:57:06;101411.59;;;3.27;100.00
49779;BME280;36217;60.232;24.776;2022-11-15T11:59:43;101414.91;;;3.36;100.00
49779;BME280;36217;60.232;24.776;2022-11-15T12:02:19;101418.63;;;3.76;100.00
49779;BME280;36217;60.232;24.776;2022-11-15T12:04:50;101417.87;;;3.83;100.00
49779;BME280;36217;60.232;24.776;2022-11-15T12:07:21;101427.00;;;3.96;100.00
49779;BME280;36217;60.232;24.776;2022-11-15T12:09:55;101432.70;;;3.71;100.00
49779;BME280;36217;60.232;24.776;2022-11-15T12:12:31;101432.51;;;3.68;100.00
49779;BME280;36217;60.232;24.776;2022-11-15T12:15:04;101440.12;;;4.07;100.00
49779;BME280;36217;60.232;24.776;2022-11-15T12:17:38;101441.08;;;3.77;100.00
49779;BME280;36217;60.232;24.776;2022-11-15T12:20:16;101443.78;;;4.01;100.00
49779;BME280;36217;60.232;24.776;2022-11-15T12:22:47;101437.29;;;3.92;100.00
49779;BME280;36217;60.232;24.776;2022-11-15T12:25:19;101443.50;;;3.88;100.00
49779;BME280;36217;60.232;24.776;2022-11-15T12:27:51;101453.21;;;3.69;100.00
49779;BME280;36217;60.232;24.776;2022-11-15T12:30:21;101452.93;;;3.81;100.00
49779;BME280;36217;60.232;24.776;2022-11-15T12:32:52;101459.04;;;3.47;100.00
49779;BME280;36217;60.232;24.776;2022-11-15T12:35:37;101465.26;;;3.44;100.00
49779;BME280;36217;60.232;24.776;2022-11-15T12:38:09;101454.20;;;3.32;100.00
49779;BME280;36217;60.232;24.776;2022-11-15T12:40:38;101454.28;;;3.16;100.00
49779;BME280;36217;60.232;24.776;2022-11-15T12:43:36;101452.48;;;3.74;100.00
49779;BME280;36217;60.232;24.776;2022-11-15T12:46:05;101459.21;;;3.63;100.00
49779;BME280;36217;60.232;24.776;2022-11-15T12:48:52;101450.49;;;3.67;100.00
49779;BME280;36217;60.232;24.776;2022-11-15T12:51:21;101455.24;;;3.30;100.00
49779;BME280;36217;60.232;24.776;2022-11-15T12:53:49;101460.00;;;3.65;100.00
49779;BME280;36217;60.232;24.776;2022-11-15T12:56:21;101463.20;;;3.55;100.00
49779;BME280;36217;60.232;24.776;2022-11-15T12:58:51;101462.13;;;3.52;100.00